Brainard, Nebraska
Current Conditions -  °F | °C
As of 8:35 AM on Thursday 30 Oct 2014 (Local Time) from KAHQ Reporting Station
Clear Clear  
Wind Chill: 42°   Ceiling: Unl
Heat Index: 46°   Visibility: 10mi
Dew Point: 35°   Wind: 8mph
Humidity: 66%   Direction: 310°NW
Pressure: 30.05"   Gusts: NA
Location:  41.18°N, 97°W
Report Text: KAHQ 301335Z AUTO 31007KT 10SM CLR 08/02 A3005 RMK AO2 T00770018
Loading
Personal Weather Stations






























Interactive Weather Map
Tropical Storm Tracking
New forecast layout! Learn more

10-Day Weather Forecast

Advertisements
Track Severe Weather on mobile